sensor_id;sensor_type;location;lat;lon;timestamp;pressure;altitude;pressure_sealevel;temperature;humidity
59757;BME280;45631;51.962;5.974;2023-05-11T00:02:04;101254.97;;;13.06;100.00
59757;BME280;45631;51.962;5.974;2023-05-11T00:04:33;101249.69;;;13.06;100.00
59757;BME280;45631;51.962;5.974;2023-05-11T00:07:02;101253.19;;;13.06;100.00
59757;BME280;45631;51.962;5.974;2023-05-11T00:09:30;101242.72;;;13.05;100.00
59757;BME280;45631;51.962;5.974;2023-05-11T00:11:58;101244.31;;;13.07;100.00
59757;BME280;45631;51.962;5.974;2023-05-11T00:14:28;101245.06;;;13.09;100.00
59757;BME280;45631;51.962;5.974;2023-05-11T00:16:57;101240.84;;;13.07;100.00
59757;BME280;45631;51.962;5.974;2023-05-11T00:19:25;101237.25;;;13.08;100.00
59757;BME280;45631;51.962;5.974;2023-05-11T00:22:00;101238.19;;;13.07;100.00
59757;BME280;45631;51.962;5.974;2023-05-11T00:24:28;101237.44;;;13.05;100.00
59757;BME280;45631;51.962;5.974;2023-05-11T00:26:56;101234.06;;;13.02;100.00
59757;BME280;45631;51.962;5.974;2023-05-11T00:29:24;101238.41;;;13.04;100.00
59757;BME280;45631;51.962;5.974;2023-05-11T00:31:53;101235.03;;;13.01;100.00
59757;BME280;45631;51.962;5.974;2023-05-11T00:34:22;101232.69;;;13.10;100.00
59757;BME280;45631;51.962;5.974;2023-05-11T00:36:50;101234.06;;;13.02;100.00
59757;BME280;45631;51.962;5.974;2023-05-11T00:39:18;101232.50;;;13.00;100.00
59757;BME280;45631;51.962;5.974;2023-05-11T00:41:46;101228.78;;;13.02;100.00
59757;BME280;45631;51.962;5.974;2023-05-11T00:44:14;101229.75;;;13.01;100.00
59757;BME280;45631;51.962;5.974;2023-05-11T00:46:42;101231.44;;;13.02;100.00
59757;BME280;45631;51.962;5.974;2023-05-11T00:49:12;101218.97;;;13.05;100.00
59757;BME280;45631;51.962;5.974;2023-05-11T00:51:43;101226.47;;;13.11;100.00
59757;BME280;45631;51.962;5.974;2023-05-11T00:54:11;101234.38;;;13.11;100.00
59757;BME280;45631;51.962;5.974;2023-05-11T00:56:41;101237.34;;;13.06;100.00
59757;BME280;45631;51.962;5.974;2023-05-11T00:59:09;101228.56;;;13.06;100.00
59757;BME280;45631;51.962;5.974;2023-05-11T01:01:39;101228.03;;;13.00;100.00
59757;BME280;45631;51.962;5.974;2023-05-11T01:04:08;101235.34;;;12.97;100.00
59757;BME280;45631;51.962;5.974;2023-05-11T01:06:43;101235.13;;;13.00;100.00
59757;BME280;45631;51.962;5.974;2023-05-11T01:09:23;101245.81;;;12.98;100.00
59757;BME280;45631;51.962;5.974;2023-05-11T01:12:02;101243.16;;;12.98;100.00
59757;BME280;45631;51.962;5.974;2023-05-11T01:14:40;101238.09;;;12.95;100.00
59757;BME280;45631;51.962;5.974;2023-05-11T01:17:14;101238.94;;;12.96;100.00
59757;BME280;45631;51.962;5.974;2023-05-11T01:19:49;101235.34;;;12.97;100.00
59757;BME280;45631;51.962;5.974;2023-05-11T01:22:33;101237.88;;;12.98;100.00
59757;BME280;45631;51.962;5.974;2023-05-11T01:25:16;101238.94;;;12.96;100.00
59757;BME280;45631;51.962;5.974;2023-05-11T01:27:59;101240.75;;;12.95;100.00
59757;BME280;45631;51.962;5.974;2023-05-11T01:30:42;101239.69;;;12.98;100.00
59757;BME280;45631;51.962;5.974;2023-05-11T01:33:15;101242.81;;;13.03;100.00
59757;BME280;45631;51.962;5.974;2023-05-11T01:35:49;101248.09;;;13.03;100.00
59757;BME280;45631;51.962;5.974;2023-05-11T01:38:20;101252.66;;;13.01;100.00
59757;BME280;45631;51.962;5.974;2023-05-11T01:40:51;101250.97;;;13.00;100.00
59757;BME280;45631;51.962;5.974;2023-05-11T01:43:23;101253.50;;;13.01;100.00
59757;BME280;45631;51.962;5.974;2023-05-11T01:45:58;101244.09;;;12.97;100.00
59757;BME280;45631;51.962;5.974;2023-05-11T01:48:29;101246.75;;;12.97;100.00
59757;BME280;45631;51.962;5.974;2023-05-11T01:51:00;101251.19;;;12.97;100.00
59757;BME280;45631;51.962;5.974;2023-05-11T01:53:32;101256.91;;;13.04;100.00
59757;BME280;45631;51.962;5.974;2023-05-11T01:56:02;101250.63;;;13.05;100.00
59757;BME280;45631;51.962;5.974;2023-05-11T01:58:31;101255.19;;;13.02;100.00
59757;BME280;45631;51.962;5.974;2023-05-11T02:01:03;101265.88;;;13.01;100.00
59757;BME280;45631;51.962;5.974;2023-05-11T02:03:35;101263.13;;;13.02;100.00
59757;BME280;45631;51.962;5.974;2023-05-11T02:06:05;101267.47;;;13.04;100.00
59757;BME280;45631;51.962;5.974;2023-05-11T02:08:35;101263.84;;;13.05;100.00
59757;BME280;45631;51.962;5.974;2023-05-11T02:11:05;101257.94;;;13.01;100.00
59757;BME280;45631;51.962;5.974;2023-05-11T02:13:35;101259.72;;;13.00;100.00
59757;BME280;45631;51.962;5.974;2023-05-11T02:16:08;101257.31;;;12.97;100.00
59757;BME280;45631;51.962;5.974;2023-05-11T02:18:39;101264.38;;;12.97;100.00
59757;BME280;45631;51.962;5.974;2023-05-11T02:21:08;101268.81;;;12.96;100.00
59757;BME280;45631;51.962;5.974;2023-05-11T02:23:38;101270.72;;;12.94;100.00
59757;BME280;45631;51.962;5.974;2023-05-11T02:26:09;101267.03;;;12.97;100.00
59757;BME280;45631;51.962;5.974;2023-05-11T02:28:39;101271.25;;;12.99;100.00
59757;BME280;45631;51.962;5.974;2023-05-11T02:31:11;101257.00;;;13.02;100.00
59757;BME280;45631;51.962;5.974;2023-05-11T02:33:46;101254.38;;;13.02;100.00
59757;BME280;45631;51.962;5.974;2023-05-11T02:36:32;101249.28;;;12.99;100.00
59757;BME280;45631;51.962;5.974;2023-05-11T02:39:06;101249.16;;;13.00;100.00
59757;BME280;45631;51.962;5.974;2023-05-11T02:41:39;101261.63;;;12.98;100.00
59757;BME280;45631;51.962;5.974;2023-05-11T02:44:12;101250.97;;;13.00;100.00
59757;BME280;45631;51.962;5.974;2023-05-11T02:46:42;101259.00;;;12.98;100.00
59757;BME280;45631;51.962;5.974;2023-05-11T02:49:14;101256.03;;;12.90;100.00
59757;BME280;45631;51.962;5.974;2023-05-11T02:51:45;101258.69;;;12.90;100.00
59757;BME280;45631;51.962;5.974;2023-05-11T02:54:16;101253.19;;;12.93;100.00
59757;BME280;45631;51.962;5.974;2023-05-11T02:56:45;101253.06;;;12.95;100.00
59757;BME280;45631;51.962;5.974;2023-05-11T02:59:15;101254.13;;;12.92;100.00
59757;BME280;45631;51.962;5.974;2023-05-11T03:01:44;101255.81;;;12.93;100.00
59757;BME280;45631;51.962;5.974;2023-05-11T03:04:15;101253.94;;;12.95;100.00
59757;BME280;45631;51.962;5.974;2023-05-11T03:06:45;101258.56;;;12.92;100.00
59757;BME280;45631;51.962;5.974;2023-05-11T03:09:13;101258.78;;;12.89;100.00
59757;BME280;45631;51.962;5.974;2023-05-11T03:11:41;101253.69;;;12.85;100.00
59757;BME280;45631;51.962;5.974;2023-05-11T03:14:10;101253.41;;;12.90;100.00
59757;BME280;45631;51.962;5.974;2023-05-11T03:16:38;101255.28;;;12.88;100.00
59757;BME280;45631;51.962;5.974;2023-05-11T03:19:09;101252.66;;;12.88;100.00
59757;BME280;45631;51.962;5.974;2023-05-11T03:21:37;101256.97;;;12.89;100.00
59757;BME280;45631;51.962;5.974;2023-05-11T03:24:08;101250.56;;;12.80;100.00
59757;BME280;45631;51.962;5.974;2023-05-11T03:26:37;101257.06;;;12.75;100.00
59757;BME280;45631;51.962;5.974;2023-05-11T03:29:06;101253.38;;;12.77;100.00
59757;BME280;45631;51.962;5.974;2023-05-11T03:31:35;101246.94;;;12.81;100.00
59757;BME280;45631;51.962;5.974;2023-05-11T03:34:04;101246.88;;;12.83;100.00
59757;BME280;45631;51.962;5.974;2023-05-11T03:36:32;101246.00;;;12.82;100.00
59757;BME280;45631;51.962;5.974;2023-05-11T03:39:01;101246.09;;;12.81;100.00
59757;BME280;45631;51.962;5.974;2023-05-11T03:41:33;101243.69;;;12.78;100.00
59757;BME280;45631;51.962;5.974;2023-05-11T03:44:03;101248.22;;;12.76;100.00
59757;BME280;45631;51.962;5.974;2023-05-11T03:46:34;101250.13;;;12.74;100.00
59757;BME280;45631;51.962;5.974;2023-05-11T03:49:06;101251.06;;;12.73;100.00
59757;BME280;45631;51.962;5.974;2023-05-11T03:51:38;101252.75;;;12.74;100.00
59757;BME280;45631;51.962;5.974;2023-05-11T03:54:06;101250.97;;;12.74;100.00
59757;BME280;45631;51.962;5.974;2023-05-11T03:56:36;101248.97;;;12.78;100.00
59757;BME280;45631;51.962;5.974;2023-05-11T03:59:05;101252.13;;;12.83;100.00
59757;BME280;45631;51.962;5.974;2023-05-11T04:01:34;101249.50;;;12.83;100.00
59757;BME280;45631;51.962;5.974;2023-05-11T04:04:03;101254.97;;;12.80;100.00
59757;BME280;45631;51.962;5.974;2023-05-11T04:06:31;101258.56;;;12.79;100.00
59757;BME280;45631;51.962;5.974;2023-05-11T04:08:59;101263.22;;;12.75;100.00
59757;BME280;45631;51.962;5.974;2023-05-11T04:11:27;101255.41;;;12.74;100.00
59757;BME280;45631;51.962;5.974;2023-05-11T04:13:58;101251.78;;;12.75;100.00
59757;BME280;45631;51.962;5.974;2023-05-11T04:16:26;101251.78;;;12.75;100.00
59757;BME280;45631;51.962;5.974;2023-05-11T04:18:54;101257.06;;;12.75;100.00
59757;BME280;45631;51.962;5.974;2023-05-11T04:21:22;101260.13;;;12.68;100.00
59757;BME280;45631;51.962;5.974;2023-05-11T04:23:50;101262.88;;;12.67;100.00
59757;BME280;45631;51.962;5.974;2023-05-11T04:26:21;101264.03;;;12.63;100.00
59757;BME280;45631;51.962;5.974;2023-05-11T04:28:49;101267.41;;;12.65;100.00
59757;BME280;45631;51.962;5.974;2023-05-11T04:31:19;101271.09;;;12.62;100.00
59757;BME280;45631;51.962;5.974;2023-05-11T04:33:47;101275.53;;;12.62;100.00
59757;BME280;45631;51.962;5.974;2023-05-11T04:36:20;101280.69;;;12.63;100.00
59757;BME280;45631;51.962;5.974;2023-05-11T04:38:49;101269.44;;;12.61;100.00
59757;BME280;45631;51.962;5.974;2023-05-11T04:41:21;101276.91;;;12.67;100.00
59757;BME280;45631;51.962;5.974;2023-05-11T04:43:49;101275.22;;;12.66;100.00
59757;BME280;45631;51.962;5.974;2023-05-11T04:46:21;101275.97;;;12.68;100.00
59757;BME280;45631;51.962;5.974;2023-05-11T04:48:49;101281.34;;;12.67;100.00
59757;BME280;45631;51.962;5.974;2023-05-11T04:51:18;101286.75;;;12.65;100.00
59757;BME280;45631;51.962;5.974;2023-05-11T04:53:46;101282.41;;;12.64;100.00
59757;BME280;45631;51.962;5.974;2023-05-11T04:56:14;101279.53;;;12.67;100.00
59757;BME280;45631;51.962;5.974;2023-05-11T04:58:43;101282.91;;;12.57;100.00
59757;BME280;45631;51.962;5.974;2023-05-11T05:01:12;101286.41;;;12.57;100.00
59757;BME280;45631;51.962;5.974;2023-05-11T05:03:41;101291.69;;;12.57;100.00
59757;BME280;45631;51.962;5.974;2023-05-11T05:06:09;101283.66;;;12.59;100.00
59757;BME280;45631;51.962;5.974;2023-05-11T05:08:37;101287.69;;;12.64;100.00
59757;BME280;45631;51.962;5.974;2023-05-11T05:11:06;101305.00;;;12.68;100.00
59757;BME280;45631;51.962;5.974;2023-05-11T05:13:34;101289.38;;;12.65;100.00
59757;BME280;45631;51.962;5.974;2023-05-11T05:16:02;101293.69;;;12.66;100.00
59757;BME280;45631;51.962;5.974;2023-05-11T05:18:30;101300.66;;;12.67;100.00
59757;BME280;45631;51.962;5.974;2023-05-11T05:21:02;101299.50;;;12.72;100.00
59757;BME280;45631;51.962;5.974;2023-05-11T05:23:31;101301.19;;;12.73;100.00
59757;BME280;45631;51.962;5.974;2023-05-11T05:25:59;101300.38;;;12.72;100.00
59757;BME280;45631;51.962;5.974;2023-05-11T05:28:27;101301.75;;;12.78;100.00
59757;BME280;45631;51.962;5.974;2023-05-11T05:30:55;101309.13;;;12.73;100.00
59757;BME280;45631;51.962;5.974;2023-05-11T05:33:24;101312.16;;;12.66;100.00
59757;BME280;45631;51.962;5.974;2023-05-11T05:35:52;101311.53;;;12.63;100.00
59757;BME280;45631;51.962;5.974;2023-05-11T05:38:22;101312.25;;;12.65;100.00
59757;BME280;45631;51.962;5.974;2023-05-11T05:40:50;101318.41;;;12.65;100.00
59757;BME280;45631;51.962;5.974;2023-05-11T05:43:18;101317.66;;;12.63;100.00
59757;BME280;45631;51.962;5.974;2023-05-11T05:45:46;101320.00;;;12.68;100.00
59757;BME280;45631;51.962;5.974;2023-05-11T05:48:15;101317.16;;;12.71;100.00
59757;BME280;45631;51.962;5.974;2023-05-11T05:50:43;101329.19;;;12.75;100.00
59757;BME280;45631;51.962;5.974;2023-05-11T05:53:11;101324.63;;;12.64;100.00
59757;BME280;45631;51.962;5.974;2023-05-11T05:55:40;101327.56;;;12.60;100.00
59757;BME280;45631;51.962;5.974;2023-05-11T05:58:08;101333.25;;;12.66;100.00
59757;BME280;45631;51.962;5.974;2023-05-11T06:00:36;101326.50;;;12.62;100.00
59757;BME280;45631;51.962;5.974;2023-05-11T06:03:04;101333.25;;;12.66;100.00
59757;BME280;45631;51.962;5.974;2023-05-11T06:05:33;101341.72;;;12.72;100.00
59757;BME280;45631;51.962;5.974;2023-05-11T06:08:04;101345.31;;;12.71;100.00
59757;BME280;45631;51.962;5.974;2023-05-11T06:10:37;101336.44;;;12.72;100.00
59757;BME280;45631;51.962;5.974;2023-05-11T06:13:07;101339.97;;;12.72;100.00
59757;BME280;45631;51.962;5.974;2023-05-11T06:15:36;101337.09;;;12.75;100.00
59757;BME280;45631;51.962;5.974;2023-05-11T06:18:08;101337.94;;;12.76;100.00
59757;BME280;45631;51.962;5.974;2023-05-11T06:20:36;101334.34;;;12.77;100.00
59757;BME280;45631;51.962;5.974;2023-05-11T06:23:04;101337.75;;;12.79;100.00
59757;BME280;45631;51.962;5.974;2023-05-11T06:25:33;101335.94;;;12.79;100.00
59757;BME280;45631;51.962;5.974;2023-05-11T06:28:02;101334.47;;;12.75;100.00
59757;BME280;45631;51.962;5.974;2023-05-11T06:30:31;101334.16;;;12.80;100.00
59757;BME280;45631;51.962;5.974;2023-05-11T06:33:00;101337.22;;;12.87;100.00
59757;BME280;45631;51.962;5.974;2023-05-11T06:35:28;101339.56;;;12.91;100.00
59757;BME280;45631;51.962;5.974;2023-05-11T06:37:56;101334.81;;;12.96;100.00
59757;BME280;45631;51.962;5.974;2023-05-11T06:40:24;101339.78;;;13.01;100.00
59757;BME280;45631;51.962;5.974;2023-05-11T06:42:53;101334.84;;;13.09;100.00
59757;BME280;45631;51.962;5.974;2023-05-11T06:45:21;101328.50;;;13.12;100.00
59757;BME280;45631;51.962;5.974;2023-05-11T06:47:51;101335.44;;;13.13;100.00
59757;BME280;45631;51.962;5.974;2023-05-11T06:50:20;101342.97;;;13.19;100.00
59757;BME280;45631;51.962;5.974;2023-05-11T06:52:50;101346.16;;;13.24;100.00
59757;BME280;45631;51.962;5.974;2023-05-11T06:55:23;101341.19;;;13.32;100.00
59757;BME280;45631;51.962;5.974;2023-05-11T06:57:51;101335.31;;;13.42;100.00
59757;BME280;45631;51.962;5.974;2023-05-11T07:00:19;101344.59;;;13.47;100.00
59757;BME280;45631;51.962;5.974;2023-05-11T07:02:48;101338.25;;;13.50;100.00
59757;BME280;45631;51.962;5.974;2023-05-11T07:05:17;101338.75;;;13.55;100.00
59757;BME280;45631;51.962;5.974;2023-05-11T07:07:48;101342.88;;;13.59;100.00
59757;BME280;45631;51.962;5.974;2023-05-11T07:10:16;101340.56;;;13.67;100.00
59757;BME280;45631;51.962;5.974;2023-05-11T07:12:45;101345.63;;;13.71;100.00
59757;BME280;45631;51.962;5.974;2023-05-11T07:15:13;101343.06;;;13.82;100.00
59757;BME280;45631;51.962;5.974;2023-05-11T07:17:44;101346.47;;;13.84;100.00
59757;BME280;45631;51.962;5.974;2023-05-11T07:20:13;101352.34;;;13.88;100.00
59757;BME280;45631;51.962;5.974;2023-05-11T07:22:43;101350.75;;;13.98;100.00
59757;BME280;45631;51.962;5.974;2023-05-11T07:25:11;101351.16;;;14.05;100.00
59757;BME280;45631;51.962;5.974;2023-05-11T07:27:39;101355.88;;;14.12;100.00
59757;BME280;45631;51.962;5.974;2023-05-11T07:30:08;101359.69;;;14.21;100.00
59757;BME280;45631;51.962;5.974;2023-05-11T07:32:37;101362.22;;;14.23;100.00
59757;BME280;45631;51.962;5.974;2023-05-11T07:35:06;101366.66;;;14.22;100.00
59757;BME280;45631;51.962;5.974;2023-05-11T07:37:37;101373.47;;;14.37;100.00
59757;BME280;45631;51.962;5.974;2023-05-11T07:40:08;101365.00;;;14.45;100.00
59757;BME280;45631;51.962;5.974;2023-05-11T07:42:39;101366.63;;;14.59;100.00
59757;BME280;45631;51.962;5.974;2023-05-11T07:45:08;101366.50;;;14.61;100.00
59757;BME280;45631;51.962;5.974;2023-05-11T07:47:36;101366.81;;;14.69;100.00
59757;BME280;45631;51.962;5.974;2023-05-11T07:50:05;101360.47;;;14.83;100.00
59757;BME280;45631;51.962;5.974;2023-05-11T07:52:33;101362.19;;;14.95;100.00
59757;BME280;45631;51.962;5.974;2023-05-11T07:55:02;101370.91;;;15.09;100.00
59757;BME280;45631;51.962;5.974;2023-05-11T07:57:31;101354.75;;;15.12;100.00
59757;BME280;45631;51.962;5.974;2023-05-11T08:00:00;101361.91;;;15.23;100.00
59757;BME280;45631;51.962;5.974;2023-05-11T08:02:28;101359.75;;;15.39;100.00
59757;BME280;45631;51.962;5.974;2023-05-11T08:04:57;101364.00;;;15.53;100.00
59757;BME280;45631;51.962;5.974;2023-05-11T08:07:25;101366.88;;;15.72;100.00
59757;BME280;45631;51.962;5.974;2023-05-11T08:09:53;101361.03;;;15.80;100.00
59757;BME280;45631;51.962;5.974;2023-05-11T08:12:22;101364.63;;;15.91;100.00
59757;BME280;45631;51.962;5.974;2023-05-11T08:14:52;101364.00;;;15.98;100.00
59757;BME280;45631;51.962;5.974;2023-05-11T08:17:20;101368.59;;;16.08;100.00
59757;BME280;45631;51.962;5.974;2023-05-11T08:19:48;101369.56;;;15.95;100.00
59757;BME280;45631;51.962;5.974;2023-05-11T08:22:17;101362.78;;;16.14;100.00
59757;BME280;45631;51.962;5.974;2023-05-11T08:24:45;101371.69;;;16.13;100.00
59757;BME280;45631;51.962;5.974;2023-05-11T08:27:13;101377.69;;;16.26;100.00
59757;BME280;45631;51.962;5.974;2023-05-11T08:29:42;101372.38;;;16.26;100.00
59757;BME280;45631;51.962;5.974;2023-05-11T08:32:11;101374.69;;;16.31;100.00
59757;BME280;45631;51.962;5.974;2023-05-11T08:34:39;101376.13;;;16.23;100.00
59757;BME280;45631;51.962;5.974;2023-05-11T08:37:07;101379.78;;;16.22;100.00
59757;BME280;45631;51.962;5.974;2023-05-11T08:39:36;101378.69;;;16.14;100.00
59757;BME280;45631;51.962;5.974;2023-05-11T08:42:14;101375.41;;;16.33;100.00
59757;BME280;45631;51.962;5.974;2023-05-11T08:44:43;101369.22;;;16.44;100.00
59757;BME280;45631;51.962;5.974;2023-05-11T08:47:16;101368.38;;;16.43;100.00
59757;BME280;45631;51.962;5.974;2023-05-11T08:49:50;101373.59;;;16.33;100.00
59757;BME280;45631;51.962;5.974;2023-05-11T08:52:19;101380.56;;;16.34;100.00
59757;BME280;45631;51.962;5.974;2023-05-11T08:54:47;101374.19;;;16.37;100.00
59757;BME280;45631;51.962;5.974;2023-05-11T08:57:15;101375.00;;;16.49;100.00
59757;BME280;45631;51.962;5.974;2023-05-11T08:59:44;101372.34;;;16.49;100.00
59757;BME280;45631;51.962;5.974;2023-05-11T09:02:16;101375.22;;;16.57;100.00
59757;BME280;45631;51.962;5.974;2023-05-11T09:04:45;101375.91;;;16.59;100.00
59757;BME280;45631;51.962;5.974;2023-05-11T09:07:15;101373.78;;;16.53;100.00
59757;BME280;45631;51.962;5.974;2023-05-11T09:09:44;101374.94;;;16.60;100.00
59757;BME280;45631;51.962;5.974;2023-05-11T09:12:14;101369.38;;;16.63;100.00
59757;BME280;45631;51.962;5.974;2023-05-11T09:14:42;101372.34;;;16.49;100.00
59757;BME280;45631;51.962;5.974;2023-05-11T09:17:12;101369.94;;;16.46;100.00
59757;BME280;45631;51.962;5.974;2023-05-11T09:19:58;101375.69;;;16.51;100.00
59757;BME280;45631;51.962;5.974;2023-05-11T09:22:27;101375.41;;;16.65;100.00
59757;BME280;45631;51.962;5.974;2023-05-11T09:24:58;101383.59;;;16.73;100.00
59757;BME280;45631;51.962;5.974;2023-05-11T09:27:27;101396.59;;;16.77;100.00
59757;BME280;45631;51.962;5.974;2023-05-11T09:29:55;101382.44;;;16.87;100.00
59757;BME280;45631;51.962;5.974;2023-05-11T09:32:23;101388.63;;;16.88;100.00
59757;BME280;45631;51.962;5.974;2023-05-11T09:34:52;101380.41;;;16.91;100.00
59757;BME280;45631;51.962;5.974;2023-05-11T09:37:24;101379.53;;;16.90;100.00
59757;BME280;45631;51.962;5.974;2023-05-11T09:39:53;101389.09;;;16.82;100.00
59757;BME280;45631;51.962;5.974;2023-05-11T09:42:41;101380.28;;;16.93;100.00
59757;BME280;45631;51.962;5.974;2023-05-11T09:45:11;101384.75;;;16.92;100.00
59757;BME280;45631;51.962;5.974;2023-05-11T09:47:39;101386.78;;;16.88;100.00
59757;BME280;45631;51.962;5.974;2023-05-11T09:50:16;101395.66;;;16.78;100.00
59757;BME280;45631;51.962;5.974;2023-05-11T09:52:53;101387.94;;;16.75;100.00
59757;BME280;45631;51.962;5.974;2023-05-11T09:55:21;101385.31;;;16.63;100.00
59757;BME280;45631;51.962;5.974;2023-05-11T09:57:52;101386.22;;;16.52;100.00
59757;BME280;45631;51.962;5.974;2023-05-11T10:00:22;101381.88;;;16.40;100.00
59757;BME280;45631;51.962;5.974;2023-05-11T10:02:58;101380.78;;;16.54;100.00
59757;BME280;45631;51.962;5.974;2023-05-11T10:05:28;101377.38;;;16.52;100.00
59757;BME280;45631;51.962;5.974;2023-05-11T10:07:59;101384.13;;;16.56;100.00
59757;BME280;45631;51.962;5.974;2023-05-11T10:10:29;101385.78;;;16.68;100.00
59757;BME280;45631;51.962;5.974;2023-05-11T10:12:59;101389.63;;;16.76;100.00
59757;BME280;45631;51.962;5.974;2023-05-11T10:15:32;101387.28;;;16.82;100.00
59757;BME280;45631;51.962;5.974;2023-05-11T10:18:02;101380.53;;;16.89;100.00
59757;BME280;45631;51.962;5.974;2023-05-11T10:20:32;101374.69;;;16.96;100.00
59757;BME280;45631;51.962;5.974;2023-05-11T10:23:02;101378.59;;;17.13;100.00
59757;BME280;45631;51.962;5.974;2023-05-11T10:25:32;101379.31;;;17.15;100.00
59757;BME280;45631;51.962;5.974;2023-05-11T10:28:01;101370.81;;;17.21;100.00
59757;BME280;45631;51.962;5.974;2023-05-11T10:30:30;101379.94;;;17.28;100.00
59757;BME280;45631;51.962;5.974;2023-05-11T10:33:02;101381.66;;;17.29;100.00
59757;BME280;45631;51.962;5.974;2023-05-11T10:35:30;101387.94;;;17.28;100.00
59757;BME280;45631;51.962;5.974;2023-05-11T10:38:00;101386.41;;;17.35;100.00
59757;BME280;45631;51.962;5.974;2023-05-11T10:40:34;101380.78;;;17.29;100.00
59757;BME280;45631;51.962;5.974;2023-05-11T10:43:31;101393.16;;;17.39;100.00
59757;BME280;45631;51.962;5.974;2023-05-11T10:46:15;101380.38;;;17.54;100.00
59757;BME280;45631;51.962;5.974;2023-05-11T10:49:00;101385.59;;;17.35;100.00
59757;BME280;45631;51.962;5.974;2023-05-11T10:51:49;101388.44;;;17.43;100.00
59757;BME280;45631;51.962;5.974;2023-05-11T10:54:34;101386.81;;;17.10;100.00
59757;BME280;45631;51.962;5.974;2023-05-11T10:57:31;101389.03;;;17.04;100.00
59757;BME280;45631;51.962;5.974;2023-05-11T11:03:17;101389.13;;;16.38;100.00
59757;BME280;45631;51.962;5.974;2023-05-11T11:05:45;101386.50;;;16.38;100.00
59757;BME280;45631;51.962;5.974;2023-05-11T11:08:14;101396.44;;;16.57;100.00
59757;BME280;45631;51.962;5.974;2023-05-11T11:10:43;101392.09;;;16.56;100.00
59757;BME280;45631;51.962;5.974;2023-05-11T11:13:15;101390.41;;;16.55;100.00
59757;BME280;45631;51.962;5.974;2023-05-11T11:16:08;101385.13;;;16.44;100.00
59757;BME280;45631;51.962;5.974;2023-05-11T11:18:37;101382.97;;;16.49;100.00
59757;BME280;45631;51.962;5.974;2023-05-11T11:21:06;101379.22;;;16.51;100.00
59757;BME280;45631;51.962;5.974;2023-05-11T11:23:40;101380.25;;;16.60;100.00
59757;BME280;45631;51.962;5.974;2023-05-11T11:26:10;101384.88;;;16.79;100.00
59757;BME280;45631;51.962;5.974;2023-05-11T11:29:10;101381.88;;;16.84;100.00
59757;BME280;45631;51.962;5.974;2023-05-11T11:31:41;101383.66;;;16.95;100.00
59757;BME280;45631;51.962;5.974;2023-05-11T11:34:31;101382.31;;;17.00;100.00
59757;BME280;45631;51.962;5.974;2023-05-11T11:37:03;101389.63;;;17.29;100.00
59757;BME280;45631;51.962;5.974;2023-05-11T11:39:51;101381.56;;;17.40;100.00
59757;BME280;45631;51.962;5.974;2023-05-11T11:42:40;101380.22;;;17.56;100.00
59757;BME280;45631;51.962;5.974;2023-05-11T11:45:31;101386.63;;;17.74;100.00
59757;BME280;45631;51.962;5.974;2023-05-11T11:48:10;101381.28;;;17.74;100.00
59757;BME280;45631;51.962;5.974;2023-05-11T11:50:41;101379.75;;;17.72;100.00
59757;BME280;45631;51.962;5.974;2023-05-11T11:53:10;101382.44;;;17.82;100.00
59757;BME280;45631;51.962;5.974;2023-05-11T11:55:49;101380.22;;;17.87;100.00
59757;BME280;45631;51.962;5.974;2023-05-11T12:01:27;101385.00;;;17.83;100.00
59757;BME280;45631;51.962;5.974;2023-05-11T12:04:19;101381.03;;;17.78;100.00
59757;BME280;45631;51.962;5.974;2023-05-11T12:06:55;101383.09;;;17.64;100.00
59757;BME280;45631;51.962;5.974;2023-05-11T12:09:25;101383.38;;;17.40;100.00
59757;BME280;45631;51.962;5.974;2023-05-11T12:11:54;101390.84;;;17.25;100.00
59757;BME280;45631;51.962;5.974;2023-05-11T12:14:24;101384.16;;;17.31;100.00
59757;BME280;45631;51.962;5.974;2023-05-11T12:17:05;101390.94;;;17.45;100.00
59757;BME280;45631;51.962;5.974;2023-05-11T12:19:40;101377.03;;;17.31;100.00
59757;BME280;45631;51.962;5.974;2023-05-11T12:22:09;101381.97;;;17.36;100.00
59757;BME280;45631;51.962;5.974;2023-05-11T12:24:40;101372.81;;;17.29;100.00
59757;BME280;45631;51.962;5.974;2023-05-11T12:27:08;101375.88;;;17.24;100.00
59757;BME280;45631;51.962;5.974;2023-05-11T12:29:36;101373.22;;;17.03;100.00
59757;BME280;45631;51.962;5.974;2023-05-11T12:32:10;101374.19;;;17.02;100.00
59757;BME280;45631;51.962;5.974;2023-05-11T12:34:39;101374.19;;;17.02;100.00
59757;BME280;45631;51.962;5.974;2023-05-11T12:37:10;101372.63;;;17.20;100.00
59757;BME280;45631;51.962;5.974;2023-05-11T12:39:38;101362.59;;;17.03;100.00
59757;BME280;45631;51.962;5.974;2023-05-11T12:42:06;101364.28;;;17.25;100.00
59757;BME280;45631;51.962;5.974;2023-05-11T12:44:35;101363.03;;;17.29;100.00
59757;BME280;45631;51.962;5.974;2023-05-11T12:47:04;101370.16;;;17.29;100.00
59757;BME280;45631;51.962;5.974;2023-05-11T12:49:33;101367.13;;;17.33;100.00
59757;BME280;45631;51.962;5.974;2023-05-11T12:52:03;101374.44;;;17.20;100.00
59757;BME280;45631;51.962;5.974;2023-05-11T12:54:34;101369.84;;;17.22;100.00
59757;BME280;45631;51.962;5.974;2023-05-11T12:57:05;101357.81;;;17.49;100.00
59757;BME280;45631;51.962;5.974;2023-05-11T12:59:34;101364.72;;;17.61;100.00
59757;BME280;45631;51.962;5.974;2023-05-11T13:02:12;101357.63;;;17.71;100.00
59757;BME280;45631;51.962;5.974;2023-05-11T13:04:43;101355.28;;;17.78;100.00
59757;BME280;45631;51.962;5.974;2023-05-11T13:07:13;101361.78;;;17.95;100.00